createdAt,value
2023-01-17T00:01:52.244Z,2.00
2023-01-17T00:04:37.780Z,2.30
2023-01-17T00:07:24.476Z,2.10
2023-01-17T00:09:56.938Z,2.30
2023-01-17T00:12:26.350Z,2.50
2023-01-17T00:14:55.692Z,2.20
2023-01-17T00:17:23.823Z,2.07
2023-01-17T00:20:09.432Z,2.17
2023-01-17T00:22:57.043Z,2.13
2023-01-17T00:25:44.669Z,2.00
2023-01-17T00:28:11.676Z,3.40
2023-01-17T00:30:38.384Z,2.10
2023-01-17T00:33:05.468Z,1.70
2023-01-17T00:35:33.167Z,1.90
2023-01-17T00:38:06.863Z,1.93
2023-01-17T00:40:34.069Z,1.70
2023-01-17T00:43:19.519Z,1.73
2023-01-17T00:46:06.030Z,1.87
2023-01-17T00:48:52.244Z,1.90
2023-01-17T00:51:37.991Z,1.97
2023-01-17T00:54:25.548Z,1.67
2023-01-17T00:57:12.023Z,1.80
2023-01-17T00:59:56.990Z,1.40
2023-01-17T01:02:43.843Z,1.50
2023-01-17T01:05:29.752Z,1.60
2023-01-17T01:08:16.878Z,1.70
2023-01-17T01:11:05.081Z,1.90
2023-01-17T01:13:51.409Z,1.57
2023-01-17T01:16:37.835Z,1.57
2023-01-17T01:19:24.561Z,1.63
2023-01-17T01:22:09.743Z,1.83
2023-01-17T01:24:55.586Z,1.50
2023-01-17T01:27:42.181Z,1.67
2023-01-17T01:30:28.916Z,2.13
2023-01-17T01:33:14.050Z,1.90
2023-01-17T01:35:43.190Z,1.80
2023-01-17T01:38:11.058Z,1.70
2023-01-17T01:40:44.099Z,1.50
2023-01-17T01:43:15.881Z,1.90
2023-01-17T01:45:48.099Z,1.60
2023-01-17T01:48:29.519Z,1.90
2023-01-17T01:50:57.602Z,2.07
2023-01-17T01:53:26.998Z,1.80
2023-01-17T01:55:54.887Z,1.90
2023-01-17T01:58:28.772Z,1.70
2023-01-17T02:00:56.652Z,2.10
2023-01-17T02:03:29.490Z,1.70
2023-01-17T02:06:01.926Z,1.70
2023-01-17T02:08:30.145Z,2.10
2023-01-17T02:10:58.094Z,1.80
2023-01-17T02:13:28.423Z,1.90
2023-01-17T02:16:03.617Z,1.90
2023-01-17T02:18:45.892Z,2.20
2023-01-17T02:21:23.781Z,1.97
2023-01-17T02:24:34.240Z,2.00
2023-01-17T02:27:08.331Z,2.17
2023-01-17T02:30:05.795Z,2.40
2023-01-17T02:32:50.386Z,2.13
2023-01-17T02:35:28.110Z,2.50
2023-01-17T02:38:02.285Z,2.67
2023-01-17T02:40:36.741Z,2.60
2023-01-17T02:43:09.524Z,2.70
2023-01-17T02:45:37.385Z,2.80
2023-01-17T02:48:09.697Z,2.80
2023-01-17T02:50:53.408Z,2.80
2023-01-17T02:53:36.960Z,3.03
2023-01-17T02:56:16.863Z,3.20
2023-01-17T02:59:03.131Z,3.23
2023-01-17T03:01:51.286Z,3.50
2023-01-17T03:04:25.568Z,3.47
2023-01-17T03:06:57.930Z,3.60
2023-01-17T03:09:27.186Z,3.77
2023-01-17T03:11:55.135Z,4.20
2023-01-17T03:14:22.947Z,4.00
2023-01-17T03:16:51.352Z,4.27
2023-01-17T03:19:20.603Z,3.87
2023-01-17T03:21:49.368Z,4.20
2023-01-17T03:24:17.375Z,4.10
2023-01-17T03:26:47.633Z,4.20
2023-01-17T03:29:16.500Z,4.30
2023-01-17T03:31:44.484Z,4.93
2023-01-17T03:34:12.274Z,5.10
2023-01-17T03:36:41.472Z,5.23
2023-01-17T03:39:09.561Z,5.63
2023-01-17T03:41:37.455Z,5.77
2023-01-17T03:44:05.721Z,5.60
2023-01-17T03:46:34.046Z,5.93
2023-01-17T03:49:01.795Z,6.60
2023-01-17T03:51:29.694Z,6.47
2023-01-17T03:53:58.937Z,6.60
2023-01-17T03:56:26.737Z,6.80
2023-01-17T03:58:54.723Z,6.50
2023-01-17T04:01:22.837Z,6.73
2023-01-17T04:03:50.677Z,6.07
2023-01-17T04:06:18.528Z,6.13
2023-01-17T04:08:46.371Z,6.53
2023-01-17T04:11:15.557Z,7.07
2023-01-17T04:13:43.404Z,7.73
2023-01-17T04:16:13.580Z,7.13
2023-01-17T04:18:41.507Z,6.70
2023-01-17T04:21:09.321Z,5.87
2023-01-17T04:23:37.348Z,4.30
2023-01-17T04:26:05.444Z,3.53
2023-01-17T04:28:34.618Z,3.23
2023-01-17T04:31:02.612Z,3.80
2023-01-17T04:33:30.571Z,3.43
2023-01-17T04:35:58.737Z,3.90
2023-01-17T04:38:27.009Z,4.03
2023-01-17T04:40:54.796Z,4.10
2023-01-17T04:43:22.636Z,4.10
2023-01-17T04:45:56.430Z,4.13
2023-01-17T04:48:24.562Z,3.70
2023-01-17T04:50:52.729Z,3.93
2023-01-17T04:53:20.572Z,3.80
2023-01-17T04:55:48.337Z,3.90
2023-01-17T04:58:16.297Z,3.53
2023-01-17T05:00:44.289Z,3.50
2023-01-17T05:03:13.499Z,3.50
2023-01-17T05:05:41.289Z,3.43
2023-01-17T05:08:09.225Z,3.37
2023-01-17T05:10:37.042Z,3.50
2023-01-17T05:13:05.045Z,3.80
2023-01-17T05:15:33.135Z,4.30
2023-01-17T05:18:00.923Z,4.40
2023-01-17T05:20:30.248Z,4.63
2023-01-17T05:22:58.821Z,4.80
2023-01-17T05:25:28.383Z,4.90
2023-01-17T05:27:56.379Z,4.60
2023-01-17T05:30:24.655Z,4.97
2023-01-17T05:32:53.584Z,4.53
2023-01-17T05:35:24.654Z,4.73
2023-01-17T05:37:54.183Z,4.90
2023-01-17T05:40:24.942Z,4.70
2023-01-17T05:42:54.337Z,4.70
2023-01-17T05:45:23.796Z,4.30
2023-01-17T05:47:53.174Z,4.27
2023-01-17T05:50:22.713Z,4.10
2023-01-17T05:52:51.299Z,4.17
2023-01-17T05:55:21.503Z,4.07
2023-01-17T05:57:49.729Z,3.37
2023-01-17T06:00:18.679Z,2.80
2023-01-17T06:02:47.361Z,2.10
2023-01-17T06:05:16.618Z,2.17
2023-01-17T06:07:45.657Z,1.70
2023-01-17T06:10:14.450Z,1.30
2023-01-17T06:12:44.644Z,1.30
2023-01-17T06:15:13.658Z,1.30
2023-01-17T06:17:41.812Z,1.07
2023-01-17T06:20:13.125Z,1.20
2023-01-17T06:22:40.936Z,0.90
2023-01-17T06:25:09.524Z,0.83
2023-01-17T06:27:37.425Z,0.50
2023-01-17T06:30:08.237Z,0.80
2023-01-17T06:32:36.051Z,1.00
2023-01-17T06:35:03.857Z,1.10
2023-01-17T06:37:31.811Z,0.77
2023-01-17T06:39:59.884Z,0.80
2023-01-17T06:42:27.753Z,0.90
2023-01-17T06:44:55.585Z,1.23
2023-01-17T06:47:24.950Z,1.30
2023-01-17T06:49:52.890Z,1.10
2023-01-17T06:52:20.797Z,1.00
2023-01-17T06:54:49.794Z,1.20
2023-01-17T06:57:17.667Z,1.47
2023-01-17T06:59:45.548Z,1.00
2023-01-17T07:02:13.507Z,1.13
2023-01-17T07:04:42.846Z,1.10
2023-01-17T07:07:10.853Z,1.40
2023-01-17T07:09:38.970Z,1.47
2023-01-17T07:12:07.663Z,1.57
2023-01-17T07:14:35.547Z,1.80
2023-01-17T07:17:06.040Z,1.57
2023-01-17T07:19:33.950Z,1.50
2023-01-17T07:22:03.364Z,3.83
2023-01-17T07:24:31.363Z,1.90
2023-01-17T07:26:59.438Z,1.70
2023-01-17T07:29:27.379Z,1.40
2023-01-17T07:31:55.434Z,1.50
2023-01-17T07:34:23.306Z,1.53
2023-01-17T07:36:51.371Z,1.97
2023-01-17T07:39:20.700Z,1.50
2023-01-17T07:41:48.604Z,1.80
2023-01-17T07:44:16.437Z,2.20
2023-01-17T07:46:44.409Z,2.00
2023-01-17T07:49:12.576Z,2.07
2023-01-17T07:51:40.555Z,2.17
2023-01-17T07:54:08.500Z,1.87
2023-01-17T07:56:38.704Z,1.80
2023-01-17T07:59:06.665Z,2.60
2023-01-17T08:01:34.922Z,2.00
2023-01-17T08:04:03.122Z,2.00
2023-01-17T08:06:31.306Z,1.93
2023-01-17T08:08:59.705Z,1.53
2023-01-17T08:11:27.871Z,1.60
2023-01-17T08:13:59.703Z,1.87
2023-01-17T08:16:29.748Z,1.73
2023-01-17T08:18:58.496Z,1.50
2023-01-17T08:21:26.513Z,1.80
2023-01-17T08:23:54.603Z,1.40
2023-01-17T08:26:23.720Z,1.60
2023-01-17T08:29:00.353Z,1.70
2023-01-17T08:31:29.024Z,1.77
2023-01-17T08:33:58.688Z,1.43
2023-01-17T08:36:27.734Z,1.70
2023-01-17T08:38:55.943Z,1.80
2023-01-17T08:41:24.785Z,1.87
2023-01-17T08:43:53.375Z,1.60
2023-01-17T08:46:23.043Z,1.53
2023-01-17T08:48:55.777Z,1.60
2023-01-17T08:51:24.860Z,1.80
2023-01-17T08:53:52.672Z,1.80
2023-01-17T08:56:20.846Z,1.70
2023-01-17T08:58:48.707Z,1.70
2023-01-17T09:01:17.228Z,1.60
2023-01-17T09:03:46.691Z,1.60
2023-01-17T09:06:16.443Z,1.73
2023-01-17T09:08:47.110Z,2.10
2023-01-17T09:11:17.714Z,1.60
2023-01-17T09:13:45.869Z,1.80
2023-01-17T09:16:14.026Z,1.50
2023-01-17T09:18:41.865Z,7.47
2023-01-17T09:21:15.896Z,17.73
2023-01-17T09:23:44.304Z,12.60
2023-01-17T09:26:19.229Z,6.47
2023-01-17T09:28:47.070Z,2.73
2023-01-17T09:31:17.362Z,3.40
2023-01-17T09:33:45.606Z,7.10
2023-01-17T09:36:15.119Z,3.90
2023-01-17T09:38:43.373Z,6.53
2023-01-17T09:41:27.685Z,5.40
2023-01-17T09:44:01.694Z,5.33
2023-01-17T09:46:33.249Z,2.47
2023-01-17T09:49:08.444Z,1.50
2023-01-17T09:51:38.212Z,1.60
2023-01-17T09:54:06.375Z,2.17
2023-01-17T09:56:41.381Z,2.00
2023-01-17T09:59:32.313Z,1.87
2023-01-17T10:02:14.803Z,1.83
2023-01-17T10:04:55.561Z,1.60
2023-01-17T10:07:35.358Z,1.80
2023-01-17T10:10:18.579Z,1.97
2023-01-17T10:12:54.748Z,1.43
2023-01-17T10:15:53.667Z,2.23
2023-01-17T10:18:34.270Z,1.50
2023-01-17T10:21:07.220Z,1.70
2023-01-17T10:24:04.098Z,1.90
2023-01-17T10:26:34.941Z,1.87
2023-01-17T10:29:09.698Z,1.70
2023-01-17T10:31:43.473Z,1.97
2023-01-17T10:34:18.343Z,2.20
2023-01-17T10:36:51.396Z,1.70
2023-01-17T10:39:23.935Z,1.67
2023-01-17T10:41:56.270Z,1.73
2023-01-17T10:44:31.189Z,1.97
2023-01-17T10:47:04.436Z,1.80
2023-01-17T10:49:32.619Z,1.50
2023-01-17T10:52:16.820Z,1.70
2023-01-17T10:54:58.775Z,1.73
2023-01-17T10:57:28.598Z,1.50
2023-01-17T11:00:01.069Z,1.80
2023-01-17T11:02:32.968Z,1.50
2023-01-17T11:05:05.677Z,1.73
2023-01-17T11:07:33.677Z,1.43
2023-01-17T11:10:03.010Z,1.43
2023-01-17T11:12:34.642Z,1.47
2023-01-17T11:15:06.371Z,1.50
2023-01-17T11:17:37.401Z,1.40
2023-01-17T11:20:17.185Z,1.67
2023-01-17T11:22:49.762Z,1.60
2023-01-17T11:25:24.690Z,1.50
2023-01-17T11:28:01.815Z,1.60
2023-01-17T11:30:30.450Z,1.40
2023-01-17T11:32:59.661Z,1.60
2023-01-17T11:35:30.319Z,1.63
2023-01-17T11:38:04.668Z,1.77
2023-01-17T11:40:39.097Z,1.80
2023-01-17T11:43:19.668Z,1.60
2023-01-17T11:46:00.846Z,1.43
2023-01-17T11:48:35.992Z,1.40
2023-01-17T11:51:05.342Z,1.53
2023-01-17T11:53:36.011Z,1.50
2023-01-17T11:56:08.721Z,1.33
2023-01-17T11:58:39.543Z,1.60
2023-01-17T12:01:33.909Z,1.63
2023-01-17T12:04:28.468Z,2.50
2023-01-17T12:07:11.298Z,19.43
2023-01-17T12:09:47.947Z,20.70
2023-01-17T12:12:43.512Z,2.43
2023-01-17T12:15:26.564Z,4.63
2023-01-17T12:18:16.318Z,3.10
2023-01-17T12:21:03.058Z,1.93
2023-01-17T12:23:48.225Z,1.20
2023-01-17T12:26:28.951Z,2.37
2023-01-17T12:29:22.153Z,1.93
2023-01-17T12:31:59.991Z,1.27
2023-01-17T12:34:34.631Z,1.23
2023-01-17T12:37:11.836Z,1.30
2023-01-17T12:39:47.697Z,1.40
2023-01-17T12:42:20.253Z,1.23
2023-01-17T12:44:56.576Z,1.40
2023-01-17T12:47:24.922Z,1.17
2023-01-17T12:50:04.045Z,1.23
2023-01-17T12:52:47.462Z,1.37
2023-01-17T12:55:19.493Z,1.67
2023-01-17T12:57:53.737Z,1.10
2023-01-17T13:00:26.831Z,1.40
2023-01-17T13:02:59.006Z,1.13
2023-01-17T13:05:34.420Z,1.13
2023-01-17T13:08:11.350Z,1.47
2023-01-17T13:10:46.155Z,1.40
2023-01-17T13:13:22.387Z,2.00
2023-01-17T13:15:55.668Z,1.30
2023-01-17T13:18:27.012Z,1.23
2023-01-17T13:21:10.536Z,1.57
2023-01-17T13:23:56.142Z,1.33
2023-01-17T13:26:33.813Z,1.80
2023-01-17T13:29:09.499Z,1.10
2023-01-17T13:32:05.273Z,1.50
2023-01-17T13:35:01.722Z,1.60
2023-01-17T13:37:43.503Z,1.70
2023-01-17T13:40:29.883Z,1.40
2023-01-17T13:43:00.814Z,1.77
2023-01-17T13:45:32.109Z,1.40
2023-01-17T13:48:33.619Z,1.80
2023-01-17T13:51:03.349Z,1.30
2023-01-17T13:53:49.514Z,1.43
2023-01-17T13:56:27.648Z,1.73
2023-01-17T13:58:59.316Z,1.47
2023-01-17T14:01:53.124Z,1.50
2023-01-17T14:04:23.498Z,1.57
2023-01-17T14:06:56.737Z,1.60
2023-01-17T14:09:28.749Z,1.90
2023-01-17T14:12:03.833Z,1.67
2023-01-17T14:14:48.654Z,1.47
2023-01-17T14:17:51.928Z,1.60
2023-01-17T14:20:51.071Z,1.83
2023-01-17T14:23:59.896Z,1.30
2023-01-17T14:26:32.319Z,1.50
2023-01-17T14:29:20.773Z,1.87
2023-01-17T14:31:49.359Z,1.40
2023-01-17T14:34:23.835Z,1.80
2023-01-17T14:36:53.162Z,1.60
2023-01-17T14:39:23.195Z,1.80
2023-01-17T14:41:51.154Z,1.50
2023-01-17T14:44:20.172Z,1.93
2023-01-17T14:46:49.813Z,1.43
2023-01-17T14:49:26.037Z,1.60
2023-01-17T14:52:06.378Z,1.60
2023-01-17T14:54:34.537Z,1.50
2023-01-17T14:57:32.537Z,1.30
2023-01-17T15:00:19.074Z,1.70
2023-01-17T15:02:48.725Z,1.57
2023-01-17T15:05:18.512Z,1.50
2023-01-17T15:07:50.662Z,1.90
2023-01-17T15:10:21.944Z,1.80
2023-01-17T15:12:49.972Z,2.17
2023-01-17T15:15:32.819Z,2.00
2023-01-17T15:18:18.104Z,1.70
2023-01-17T15:20:52.198Z,1.67
2023-01-17T15:23:22.975Z,1.53
2023-01-17T15:25:52.673Z,1.50
2023-01-17T15:28:20.769Z,1.57
2023-01-17T15:31:04.287Z,1.70
2023-01-17T15:33:33.119Z,1.70
2023-01-17T15:36:02.656Z,1.60
2023-01-17T15:38:38.804Z,1.67
2023-01-17T15:41:13.618Z,1.33
2023-01-17T15:43:42.971Z,1.70
2023-01-17T15:46:25.843Z,1.37
2023-01-17T15:48:53.939Z,1.90
2023-01-17T15:51:33.166Z,1.60
2023-01-17T15:54:40.332Z,1.50
2023-01-17T15:57:19.827Z,1.43
2023-01-17T15:59:52.119Z,1.80
2023-01-17T16:02:43.203Z,1.73
2023-01-17T16:05:44.768Z,2.03
2023-01-17T16:08:27.763Z,1.80
2023-01-17T16:11:02.078Z,1.90
2023-01-17T16:13:31.611Z,2.30
2023-01-17T16:16:18.571Z,2.00
2023-01-17T16:18:47.739Z,2.23
2023-01-17T16:21:21.853Z,2.17
2023-01-17T16:23:49.784Z,2.10
2023-01-17T16:26:19.078Z,2.20
2023-01-17T16:28:47.019Z,2.03
2023-01-17T16:31:14.970Z,1.93
2023-01-17T16:33:43.442Z,2.30
2023-01-17T16:36:16.712Z,2.13
2023-01-17T16:38:46.459Z,2.10
2023-01-17T16:41:14.663Z,2.10
2023-01-17T16:43:44.685Z,1.90
2023-01-17T16:46:13.265Z,2.33
2023-01-17T16:48:41.102Z,2.60
2023-01-17T16:51:09.580Z,2.77
2023-01-17T16:53:37.789Z,2.67
2023-01-17T16:56:13.762Z,2.80
2023-01-17T16:58:43.597Z,2.80
2023-01-17T17:01:15.439Z,2.73
2023-01-17T17:03:43.704Z,2.77
2023-01-17T17:06:12.101Z,2.77
2023-01-17T17:08:40.307Z,2.83
2023-01-17T17:11:10.029Z,2.70
2023-01-17T17:13:37.886Z,3.20
2023-01-17T17:16:16.091Z,2.80
2023-01-17T17:18:44.285Z,3.50
2023-01-17T17:21:12.319Z,3.40
2023-01-17T17:23:40.360Z,3.10
2023-01-17T17:26:08.317Z,4.03
2023-01-17T17:28:36.802Z,3.10
2023-01-17T17:31:07.528Z,3.43
2023-01-17T17:33:37.116Z,3.43
2023-01-17T17:36:06.596Z,3.50
2023-01-17T17:38:36.261Z,3.70
2023-01-17T17:41:09.538Z,3.93
2023-01-17T17:43:40.539Z,3.70
2023-01-17T17:46:09.039Z,4.03
2023-01-17T17:48:38.435Z,4.33
2023-01-17T17:51:07.627Z,3.87
2023-01-17T17:53:35.860Z,4.00
2023-01-17T17:56:05.147Z,4.10
2023-01-17T17:58:35.014Z,4.00
2023-01-17T18:01:04.777Z,4.27
2023-01-17T18:03:33.105Z,3.80
2023-01-17T18:06:08.437Z,4.20
2023-01-17T18:08:37.910Z,4.00
2023-01-17T18:11:08.142Z,4.40
2023-01-17T18:13:36.032Z,4.10
2023-01-17T18:16:07.608Z,3.80
2023-01-17T18:18:37.348Z,4.40
2023-01-17T18:21:12.297Z,3.87
2023-01-17T18:23:41.637Z,4.70
2023-01-17T18:26:17.035Z,4.20
2023-01-17T18:28:45.124Z,4.40
2023-01-17T18:31:13.397Z,4.30
2023-01-17T18:33:41.720Z,4.70
2023-01-17T18:36:13.102Z,4.57
2023-01-17T18:38:42.519Z,4.70
2023-01-17T18:41:12.358Z,4.70
2023-01-17T18:43:40.359Z,4.43
2023-01-17T18:46:09.313Z,4.37
2023-01-17T18:48:37.764Z,4.73
2023-01-17T18:51:07.760Z,5.30
2023-01-17T18:53:38.483Z,4.70
2023-01-17T18:56:08.547Z,5.60
2023-01-17T18:58:38.841Z,6.17
2023-01-17T19:01:08.715Z,5.60
2023-01-17T19:03:36.835Z,5.93
2023-01-17T19:06:05.903Z,6.57
2023-01-17T19:08:36.157Z,6.23
2023-01-17T19:11:04.590Z,6.67
2023-01-17T19:13:32.782Z,6.97
2023-01-17T19:16:01.932Z,6.73
2023-01-17T19:18:29.869Z,6.70
2023-01-17T19:20:58.047Z,6.33
2023-01-17T19:23:25.976Z,6.93
2023-01-17T19:25:55.966Z,6.50
2023-01-17T19:28:24.144Z,6.73
2023-01-17T19:31:02.576Z,7.00
2023-01-17T19:33:30.535Z,6.90
2023-01-17T19:36:03.007Z,6.77
2023-01-17T19:38:30.960Z,6.40
2023-01-17T19:41:08.629Z,7.07
2023-01-17T19:43:36.595Z,6.83
2023-01-17T19:46:05.235Z,6.63
2023-01-17T19:48:33.084Z,7.10
2023-01-17T19:51:07.530Z,7.17
2023-01-17T19:53:37.212Z,7.13
2023-01-17T19:56:11.194Z,7.10
2023-01-17T19:58:39.774Z,7.03
2023-01-17T20:01:09.190Z,6.80
2023-01-17T20:03:38.502Z,6.40
2023-01-17T20:06:07.373Z,7.40
2023-01-17T20:08:35.522Z,6.30
2023-01-17T20:11:05.303Z,7.00
2023-01-17T20:13:34.631Z,7.37
2023-01-17T20:16:03.838Z,7.40
2023-01-17T20:18:33.148Z,6.73
2023-01-17T20:21:04.141Z,6.83
2023-01-17T20:23:35.424Z,7.23
2023-01-17T20:26:04.515Z,6.57
2023-01-17T20:28:35.288Z,7.10
2023-01-17T20:31:08.061Z,6.80
2023-01-17T20:33:36.803Z,6.53
2023-01-17T20:36:10.696Z,6.47
2023-01-17T20:38:44.665Z,6.23
2023-01-17T20:41:14.449Z,6.97
2023-01-17T20:43:44.729Z,6.47
2023-01-17T20:46:13.520Z,7.10
2023-01-17T20:48:45.621Z,6.70
2023-01-17T20:51:14.081Z,6.77
2023-01-17T20:53:43.386Z,7.00
2023-01-17T20:56:13.114Z,6.37
2023-01-17T20:58:41.211Z,5.80
2023-01-17T21:01:11.861Z,6.87
2023-01-17T21:03:40.938Z,6.10
2023-01-17T21:06:11.265Z,7.00
2023-01-17T21:08:40.544Z,6.77
2023-01-17T21:11:10.405Z,5.93
2023-01-17T21:13:38.251Z,6.53
2023-01-17T21:16:07.104Z,6.23
2023-01-17T21:18:37.034Z,6.33
2023-01-17T21:21:07.904Z,6.80
2023-01-17T21:23:36.203Z,6.90
2023-01-17T21:26:04.751Z,6.80
2023-01-17T21:28:36.048Z,6.40
2023-01-17T21:31:20.351Z,7.23
2023-01-17T21:33:51.186Z,7.63
2023-01-17T21:36:20.031Z,7.63
2023-01-17T21:38:52.215Z,7.07
2023-01-17T21:41:21.466Z,7.10
2023-01-17T21:43:49.894Z,7.33
2023-01-17T21:46:17.823Z,7.50
2023-01-17T21:48:45.649Z,7.70
2023-01-17T21:51:15.047Z,6.93
2023-01-17T21:53:43.028Z,7.23
2023-01-17T21:56:31.534Z,7.53
2023-01-17T21:59:00.031Z,6.57
2023-01-17T22:01:29.877Z,6.20
2023-01-17T22:03:59.579Z,6.70
2023-01-17T22:06:30.669Z,6.30
2023-01-17T22:08:59.134Z,6.47
2023-01-17T22:11:30.033Z,6.50
2023-01-17T22:13:59.139Z,6.50
2023-01-17T22:16:27.619Z,6.80
2023-01-17T22:18:56.219Z,6.27
2023-01-17T22:21:25.706Z,7.10
2023-01-17T22:23:56.614Z,7.10
2023-01-17T22:26:26.761Z,7.30
2023-01-17T22:28:55.441Z,8.03
2023-01-17T22:31:25.449Z,8.40
2023-01-17T22:33:55.078Z,9.87
2023-01-17T22:36:23.632Z,9.37
2023-01-17T22:38:52.042Z,10.20
2023-01-17T22:41:24.138Z,10.13
2023-01-17T22:43:54.303Z,10.23
2023-01-17T22:46:24.929Z,10.07
2023-01-17T22:48:53.335Z,10.30
2023-01-17T22:51:22.958Z,11.60
2023-01-17T22:53:52.969Z,10.97
2023-01-17T22:56:24.013Z,11.47
2023-01-17T22:58:52.039Z,11.03
2023-01-17T23:01:21.870Z,10.87
2023-01-17T23:03:53.296Z,12.57
2023-01-17T23:06:23.562Z,11.47
2023-01-17T23:08:53.641Z,11.43
2023-01-17T23:11:42.735Z,12.03
2023-01-17T23:14:14.841Z,11.37
2023-01-17T23:17:01.956Z,11.23
2023-01-17T23:19:33.275Z,12.00
2023-01-17T23:22:17.231Z,12.10
2023-01-17T23:24:48.001Z,11.97
2023-01-17T23:27:36.435Z,12.00
2023-01-17T23:30:05.959Z,12.17
2023-01-17T23:32:34.376Z,11.67
2023-01-17T23:35:02.175Z,11.70
2023-01-17T23:37:45.509Z,12.43
2023-01-17T23:40:13.590Z,11.07
2023-01-17T23:43:00.834Z,13.00
2023-01-17T23:45:28.643Z,13.33
2023-01-17T23:47:56.758Z,14.17
2023-01-17T23:50:24.651Z,13.70
2023-01-17T23:52:52.422Z,13.43
2023-01-17T23:55:20.352Z,14.97
2023-01-17T23:57:51.608Z,14.43
